createdAt,value
2022-08-11T00:00:40.282Z,3.55
2022-08-11T00:03:50.807Z,4.07
2022-08-11T00:06:56.209Z,3.83
2022-08-11T00:10:00.501Z,3.92
2022-08-11T00:13:08.156Z,3.67
2022-08-11T00:16:18.706Z,3.60
2022-08-11T00:20:13.259Z,3.35
2022-08-11T00:22:50.966Z,3.53
2022-08-11T00:25:55.746Z,3.60
2022-08-11T00:29:12.165Z,3.50
2022-08-11T00:32:16.358Z,3.60
2022-08-11T00:35:55.380Z,3.30
2022-08-11T00:38:52.907Z,3.33
2022-08-11T00:42:11.905Z,3.50
2022-08-11T00:45:35.339Z,4.00
2022-08-11T00:48:59.336Z,3.50
2022-08-11T00:52:17.691Z,3.60
2022-08-11T00:55:27.211Z,3.08
2022-08-11T00:59:34.151Z,3.60
2022-08-11T01:02:39.516Z,3.70
2022-08-11T01:06:00.584Z,3.53
2022-08-11T01:09:22.049Z,3.47
2022-08-11T01:12:41.482Z,3.40
2022-08-11T01:16:10.140Z,4.00
2022-08-11T01:20:44.864Z,3.75
2022-08-11T01:23:17.573Z,3.67
2022-08-11T01:26:42.757Z,3.47
2022-08-11T01:30:10.627Z,3.63
2022-08-11T01:33:22.715Z,3.78
2022-08-11T01:36:57.087Z,3.80
2022-08-11T01:40:09.325Z,4.00
2022-08-11T01:43:51.988Z,3.97
2022-08-11T01:47:37.302Z,3.72
2022-08-11T01:50:43.910Z,3.80
2022-08-11T01:53:57.714Z,3.83
2022-08-11T01:57:07.102Z,4.43
2022-08-11T02:00:20.897Z,3.47
2022-08-11T02:03:55.201Z,4.15
2022-08-11T02:07:10.358Z,3.45
2022-08-11T02:10:38.486Z,3.85
2022-08-11T02:13:52.657Z,3.50
2022-08-11T02:17:21.750Z,3.80
2022-08-11T02:20:47.062Z,3.95
2022-08-11T02:24:04.191Z,3.97
2022-08-11T02:27:18.718Z,4.57
2022-08-11T02:30:27.343Z,4.10
2022-08-11T02:33:36.527Z,4.05
2022-08-11T02:36:52.606Z,3.85
2022-08-11T02:39:59.088Z,3.88
2022-08-11T02:43:28.763Z,3.45
2022-08-11T02:47:09.967Z,3.35
2022-08-11T02:50:25.639Z,3.33
2022-08-11T02:53:58.260Z,3.42
2022-08-11T02:57:16.215Z,3.80
2022-08-11T03:00:20.726Z,3.90
2022-08-11T03:03:36.595Z,4.03
2022-08-11T03:06:50.332Z,4.05
2022-08-11T03:10:13.805Z,4.10
2022-08-11T03:13:44.751Z,4.03
2022-08-11T03:17:06.704Z,4.00
2022-08-11T03:20:23.937Z,4.10
2022-08-11T03:23:34.392Z,3.90
2022-08-11T03:26:56.407Z,4.20
2022-08-11T03:30:16.466Z,4.28
2022-08-11T03:33:52.489Z,4.43
2022-08-11T03:37:34.542Z,3.90
2022-08-11T03:42:03.579Z,4.18
2022-08-11T03:45:16.775Z,4.38
2022-08-11T03:48:29.095Z,3.97
2022-08-11T03:52:08.106Z,4.10
2022-08-11T03:55:33.993Z,4.13
2022-08-11T03:59:08.145Z,4.25
2022-08-11T04:02:35.517Z,4.45
2022-08-11T04:06:02.608Z,4.38
2022-08-11T04:09:25.327Z,4.75
2022-08-11T04:13:20.852Z,3.85
2022-08-11T04:17:04.565Z,4.20
2022-08-11T04:20:26.654Z,4.03
2022-08-11T04:24:36.061Z,3.72
2022-08-11T04:27:39.170Z,4.00
2022-08-11T04:31:44.125Z,4.20
2022-08-11T04:35:19.567Z,3.88
2022-08-11T04:38:33.943Z,4.13
2022-08-11T04:42:12.931Z,3.72
2022-08-11T04:45:46.551Z,3.95
2022-08-11T04:49:46.386Z,3.75
2022-08-11T04:53:54.755Z,4.00
2022-08-11T04:57:25.747Z,4.63
2022-08-11T05:00:55.543Z,4.30
2022-08-11T05:04:57.037Z,4.43
2022-08-11T05:08:05.986Z,4.57
2022-08-11T05:11:36.162Z,4.82
2022-08-11T05:15:06.982Z,4.75
2022-08-11T05:18:41.642Z,4.43
2022-08-11T05:22:11.795Z,4.67
2022-08-11T05:26:44.212Z,4.32
2022-08-11T05:30:00.591Z,4.63
2022-08-11T05:33:26.768Z,4.20
2022-08-11T05:36:45.207Z,5.10
2022-08-11T05:40:14.348Z,4.70
2022-08-11T05:43:36.660Z,4.68
2022-08-11T05:47:02.437Z,4.45
2022-08-11T05:50:31.184Z,4.47
2022-08-11T05:54:28.705Z,3.92
2022-08-11T05:57:45.450Z,3.92
2022-08-11T06:00:56.180Z,3.38
2022-08-11T06:04:14.805Z,3.13
2022-08-11T06:07:18.817Z,2.92
2022-08-11T06:10:33.958Z,2.75
2022-08-11T06:13:44.972Z,2.88
2022-08-11T06:16:51.065Z,2.92
2022-08-11T06:20:07.472Z,3.08
2022-08-11T06:23:11.703Z,2.80
2022-08-11T06:29:20.089Z,2.90
2022-08-11T06:32:55.873Z,2.80
2022-08-11T06:36:14.036Z,2.63
2022-08-11T06:39:43.827Z,2.55
2022-08-11T06:42:54.003Z,2.72
2022-08-11T06:46:03.527Z,2.40
2022-08-11T06:49:28.078Z,2.08
2022-08-11T06:52:37.058Z,2.30
2022-08-11T06:56:01.007Z,2.00
2022-08-11T06:59:23.241Z,2.20
2022-08-11T07:02:37.032Z,2.55
2022-08-11T07:05:54.780Z,2.67
2022-08-11T07:09:19.573Z,2.30
2022-08-11T07:12:51.029Z,2.67
2022-08-11T07:16:12.694Z,2.25
2022-08-11T07:19:44.324Z,1.30
2022-08-11T07:23:15.974Z,1.77
2022-08-11T07:26:41.005Z,2.10
2022-08-11T07:29:48.398Z,1.77
2022-08-11T07:32:54.897Z,1.80
2022-08-11T07:36:01.089Z,2.08
2022-08-11T07:39:04.644Z,1.60
2022-08-11T07:42:11.339Z,2.20
2022-08-11T07:45:33.313Z,2.13
2022-08-11T07:48:55.235Z,1.85
2022-08-11T07:52:17.495Z,1.52
2022-08-11T07:55:48.972Z,1.60
2022-08-11T07:59:08.409Z,2.00
2022-08-11T08:02:32.008Z,2.05
2022-08-11T08:05:54.115Z,1.80
2022-08-11T08:09:16.917Z,1.80
2022-08-11T08:12:44.752Z,2.10
2022-08-11T08:16:06.849Z,1.73
2022-08-11T08:19:16.247Z,1.48
2022-08-11T08:22:39.211Z,1.88
2022-08-11T08:25:46.519Z,1.60
2022-08-11T08:28:49.799Z,1.63
2022-08-11T08:31:56.810Z,1.73
2022-08-11T08:35:00.472Z,1.83
2022-08-11T08:38:04.847Z,2.00
2022-08-11T08:41:08.992Z,1.80
2022-08-11T08:44:37.845Z,1.48
2022-08-11T08:47:48.773Z,1.63
2022-08-11T08:51:24.109Z,1.73
2022-08-11T08:54:38.153Z,1.73
2022-08-11T08:57:43.916Z,2.20
2022-08-11T09:00:50.747Z,1.90
2022-08-11T09:04:06.580Z,1.95
2022-08-11T09:07:18.448Z,2.00
2022-08-11T09:10:22.847Z,2.10
2022-08-11T09:13:27.801Z,2.20
2022-08-11T09:16:31.144Z,2.50
2022-08-11T09:19:34.590Z,2.10
2022-08-11T09:23:35.185Z,1.80
2022-08-11T09:26:41.887Z,1.90
2022-08-11T09:29:46.031Z,1.90
2022-08-11T09:33:00.488Z,1.98
2022-08-11T09:36:25.170Z,1.80
2022-08-11T09:39:57.480Z,1.85
2022-08-11T09:43:25.843Z,2.08
2022-08-11T09:46:30.490Z,1.70
2022-08-11T09:49:34.037Z,1.48
2022-08-11T09:52:52.227Z,2.00
2022-08-11T09:56:21.950Z,1.77
2022-08-11T09:59:25.181Z,1.50
2022-08-11T10:05:53.049Z,1.75
2022-08-11T10:08:56.498Z,1.60
2022-08-11T10:12:03.168Z,1.50
2022-08-11T10:15:29.370Z,1.73
2022-08-11T10:18:51.771Z,1.85
2022-08-11T10:22:14.020Z,1.60
2022-08-11T10:25:35.679Z,1.60
2022-08-11T10:28:55.967Z,1.58
2022-08-11T10:32:21.932Z,1.73
2022-08-11T10:35:32.734Z,1.67
2022-08-11T10:38:37.006Z,1.90
2022-08-11T10:42:08.475Z,1.48
2022-08-11T10:45:33.782Z,2.05
2022-08-11T10:48:39.240Z,1.70
2022-08-11T10:52:01.471Z,2.03
2022-08-11T10:55:23.617Z,1.60
2022-08-11T10:58:45.539Z,1.73
2022-08-11T11:01:50.537Z,1.75
2022-08-11T11:05:09.321Z,1.63
2022-08-11T11:08:36.785Z,1.70
2022-08-11T11:12:06.029Z,1.77
2022-08-11T11:15:29.362Z,1.40
2022-08-11T11:18:36.783Z,1.55
2022-08-11T11:21:43.073Z,1.90
2022-08-11T11:25:08.499Z,1.83
2022-08-11T11:28:39.448Z,1.58
2022-08-11T11:32:27.770Z,1.73
2022-08-11T11:36:02.292Z,1.67
2022-08-11T11:42:10.572Z,1.58
2022-08-11T11:45:22.810Z,1.50
2022-08-11T11:48:29.191Z,1.60
2022-08-11T11:51:33.266Z,1.50
2022-08-11T11:54:39.201Z,1.45
2022-08-11T11:58:02.708Z,1.27
2022-08-11T12:01:21.099Z,1.63
2022-08-11T12:04:25.994Z,1.80
2022-08-11T12:08:05.018Z,1.80
2022-08-11T12:11:32.897Z,1.60
2022-08-11T12:14:37.228Z,1.80
2022-08-11T12:17:40.751Z,1.85
2022-08-11T12:20:45.404Z,2.03
2022-08-11T12:24:07.713Z,1.80
2022-08-11T12:27:24.862Z,2.05
2022-08-11T12:30:29.589Z,1.50
2022-08-11T12:33:35.162Z,1.70
2022-08-11T12:36:49.229Z,1.50
2022-08-11T12:40:42.865Z,1.77
2022-08-11T12:44:04.409Z,1.58
2022-08-11T12:47:09.369Z,1.45
2022-08-11T12:50:30.824Z,1.55
2022-08-11T12:53:37.702Z,1.35
2022-08-11T12:57:13.434Z,1.25
2022-08-11T13:00:36.982Z,1.35
2022-08-11T13:07:03.236Z,2.03
2022-08-11T13:10:11.197Z,1.52
2022-08-11T13:13:54.301Z,1.50
2022-08-11T13:17:05.891Z,1.40
2022-08-11T13:20:13.709Z,1.88
2022-08-11T13:23:17.016Z,1.50
2022-08-11T13:26:24.931Z,1.50
2022-08-11T13:29:47.076Z,1.50
2022-08-11T13:32:51.830Z,1.10
2022-08-11T13:35:55.965Z,1.33
2022-08-11T13:38:59.964Z,1.10
2022-08-11T13:42:05.297Z,1.40
2022-08-11T13:45:09.468Z,1.20
2022-08-11T13:48:13.300Z,1.45
2022-08-11T13:51:35.532Z,1.45
2022-08-11T13:54:41.223Z,1.30
2022-08-11T13:58:08.206Z,1.20
2022-08-11T14:01:16.744Z,1.30
2022-08-11T14:04:39.552Z,1.63
2022-08-11T14:07:51.137Z,1.40
2022-08-11T14:12:19.950Z,1.35
2022-08-11T14:14:42.627Z,1.27
2022-08-11T14:17:52.275Z,1.23
2022-08-11T14:21:17.735Z,1.30
2022-08-11T14:24:22.035Z,1.40
2022-08-11T14:28:32.641Z,1.45
2022-08-11T14:31:01.244Z,1.63
2022-08-11T14:34:07.994Z,1.42
2022-08-11T14:37:19.613Z,1.40
2022-08-11T14:40:42.346Z,1.38
2022-08-11T14:44:14.427Z,1.40
2022-08-11T14:47:23.751Z,1.50
2022-08-11T14:50:31.295Z,1.27
2022-08-11T14:53:35.054Z,1.40
2022-08-11T14:59:43.629Z,1.33
2022-08-11T15:03:11.137Z,1.27
2022-08-11T15:06:14.723Z,1.40
2022-08-11T15:09:18.853Z,1.33
2022-08-11T15:12:32.142Z,1.13
2022-08-11T15:15:55.979Z,1.50
2022-08-11T15:18:59.684Z,1.52
2022-08-11T15:22:24.885Z,1.40
2022-08-11T15:25:34.641Z,1.70
2022-08-11T15:29:01.482Z,1.50
2022-08-11T15:32:23.320Z,1.40
2022-08-11T15:35:47.749Z,1.42
2022-08-11T15:38:59.823Z,1.63
2022-08-11T15:42:33.801Z,1.40
2022-08-11T15:45:52.289Z,1.60
2022-08-11T15:49:00.901Z,1.77
2022-08-11T15:52:09.973Z,1.90
2022-08-11T15:55:15.482Z,1.30
2022-08-11T15:58:40.762Z,1.52
2022-08-11T16:02:04.354Z,1.40
2022-08-11T16:05:14.250Z,1.40
2022-08-11T16:08:40.683Z,1.35
2022-08-11T16:11:46.394Z,1.40
2022-08-11T16:15:20.159Z,1.50
2022-08-11T16:18:40.848Z,1.52
2022-08-11T16:21:45.740Z,1.20
2022-08-11T16:27:04.749Z,1.40
2022-08-11T16:28:15.402Z,1.27
2022-08-11T16:31:21.997Z,1.38
2022-08-11T16:34:46.420Z,1.55
2022-08-11T16:41:14.195Z,1.40
2022-08-11T16:44:38.357Z,1.40
2022-08-11T16:48:03.414Z,1.40
2022-08-11T16:51:10.695Z,1.67
2022-08-11T16:54:14.524Z,1.35
2022-08-11T16:57:46.034Z,1.80
2022-08-11T17:00:51.466Z,2.67
2022-08-11T17:04:24.457Z,1.92
2022-08-11T17:07:57.066Z,1.70
2022-08-11T17:11:24.385Z,1.45
2022-08-11T17:14:43.471Z,1.45
2022-08-11T17:17:47.082Z,1.80
2022-08-11T17:20:50.452Z,1.75
2022-08-11T17:24:01.894Z,1.73
2022-08-11T17:27:09.225Z,2.00
2022-08-11T17:30:14.219Z,1.58
2022-08-11T17:33:37.404Z,1.60
2022-08-11T17:36:45.835Z,1.40
2022-08-11T17:39:50.750Z,1.40
2022-08-11T17:43:14.693Z,1.63
2022-08-11T17:46:38.148Z,1.83
2022-08-11T17:49:41.853Z,2.00
2022-08-11T17:53:05.715Z,1.88
2022-08-11T17:56:28.147Z,1.83
2022-08-11T17:59:52.017Z,2.00
2022-08-11T18:03:15.761Z,1.80
2022-08-11T18:06:20.018Z,2.05
2022-08-11T18:09:51.655Z,1.85
2022-08-11T18:13:15.542Z,1.50
2022-08-11T18:16:38.512Z,2.08
2022-08-11T18:20:01.036Z,2.00
2022-08-11T18:23:40.685Z,1.77
2022-08-11T18:27:10.987Z,1.67
2022-08-11T18:30:32.629Z,2.17
2022-08-11T18:34:08.605Z,1.90
2022-08-11T18:37:35.123Z,1.88
2022-08-11T18:41:02.125Z,1.50
2022-08-11T18:44:26.356Z,1.83
2022-08-11T18:47:48.957Z,1.65
2022-08-11T18:51:30.412Z,1.48
2022-08-11T18:55:05.451Z,1.60
2022-08-11T18:58:34.088Z,1.52
2022-08-11T19:01:58.094Z,1.45
2022-08-11T19:06:31.666Z,1.85
2022-08-11T19:09:17.592Z,1.70
2022-08-11T19:12:40.821Z,1.67
2022-08-11T19:16:05.485Z,1.48
2022-08-11T19:19:30.651Z,1.63
2022-08-11T19:22:54.837Z,1.83
2022-08-11T19:26:18.640Z,1.83
2022-08-11T19:30:04.643Z,2.10
2022-08-11T19:34:00.389Z,1.85
2022-08-11T19:37:08.096Z,1.80
2022-08-11T19:40:31.267Z,1.60
2022-08-11T19:43:55.331Z,1.83
2022-08-11T19:47:18.389Z,2.25
2022-08-11T19:50:40.158Z,1.88
2022-08-11T19:54:03.490Z,2.15
2022-08-11T19:57:26.041Z,1.80
2022-08-11T20:00:48.620Z,1.70
2022-08-11T20:04:10.732Z,2.28
2022-08-11T20:07:33.485Z,1.50
2022-08-11T20:10:56.491Z,1.55
2022-08-11T20:14:20.145Z,1.98
2022-08-11T20:17:44.794Z,2.40
2022-08-11T20:21:22.792Z,2.72
2022-08-11T20:28:19.122Z,2.95
2022-08-11T20:31:42.334Z,6.82
2022-08-11T20:35:05.481Z,2.75
2022-08-11T20:38:28.968Z,2.22
2022-08-11T20:41:58.458Z,1.80
2022-08-11T20:45:25.554Z,2.13
2022-08-11T20:48:49.832Z,2.10
2022-08-11T20:52:11.895Z,1.67
2022-08-11T20:55:51.749Z,1.90
2022-08-11T20:59:22.006Z,1.88
2022-08-11T21:02:50.048Z,2.13
2022-08-11T21:06:13.389Z,1.90
2022-08-11T21:10:00.949Z,1.90
2022-08-11T21:13:26.534Z,1.88
2022-08-11T21:16:55.368Z,2.00
2022-08-11T21:20:23.442Z,2.33
2022-08-11T21:23:49.028Z,2.30
2022-08-11T21:27:16.114Z,2.33
2022-08-11T21:30:46.585Z,2.65
2022-08-11T21:34:09.161Z,2.25
2022-08-11T21:37:33.603Z,2.60
2022-08-11T21:41:00.240Z,2.50
2022-08-11T21:44:24.981Z,2.38
2022-08-11T21:47:49.617Z,2.67
2022-08-11T21:51:23.615Z,2.53
2022-08-11T21:54:46.425Z,2.53
2022-08-11T21:58:08.560Z,2.35
2022-08-11T22:01:34.437Z,2.50
2022-08-11T22:04:57.635Z,2.22
2022-08-11T22:08:20.885Z,2.30
2022-08-11T22:11:42.306Z,2.10
2022-08-11T22:15:04.962Z,2.30
2022-08-11T22:18:27.041Z,2.20
2022-08-11T22:22:02.661Z,2.10
2022-08-11T22:25:27.984Z,2.08
2022-08-11T22:29:00.449Z,2.22
2022-08-11T22:32:23.275Z,2.03
2022-08-11T22:35:46.224Z,2.38
2022-08-11T22:39:09.552Z,2.40
2022-08-11T22:42:33.725Z,2.50
2022-08-11T22:45:55.579Z,2.30
2022-08-11T22:49:17.759Z,2.08
2022-08-11T22:52:40.790Z,2.00
2022-08-11T22:56:03.417Z,2.20
2022-08-11T22:59:26.552Z,2.40
2022-08-11T23:02:49.193Z,2.50
2022-08-11T23:06:12.473Z,2.30
2022-08-11T23:09:35.498Z,2.15
2022-08-11T23:12:58.294Z,2.72
2022-08-11T23:16:20.814Z,2.20
2022-08-11T23:20:08.650Z,2.20
2022-08-11T23:23:26.500Z,2.25
2022-08-11T23:26:48.800Z,2.10
2022-08-11T23:30:18.947Z,2.10
2022-08-11T23:33:43.113Z,2.00
2022-08-11T23:37:07.030Z,2.10
2022-08-11T23:40:29.980Z,2.20
2022-08-11T23:43:51.929Z,1.92
2022-08-11T23:47:17.793Z,2.20
2022-08-11T23:50:41.559Z,2.30
2022-08-11T23:54:07.922Z,2.20
2022-08-11T23:57:31.014Z,2.08
